Amherst, New Hampshire
Current Conditions -  °F | °C
As of 5:51 PM on Thursday 23 Oct 2014 (Local Time) from KASH Reporting Station
Overcast Overcast  
Wind Chill: 53°   Ceiling: 1800
Heat Index: 53°   Visibility: 10mi
Dew Point: 49°   Wind: 10mph
Humidity: 86%   Direction: 350°N
Pressure: 29.7"   Gusts: NA
Location:  42.86°N, 71.63°W
Report Text: KASH 232151Z AUTO 35009KT 10SM OVC018 12/09 A2970 RMK AO2 T01160094 SLP304 $
Loading
Personal Weather Stations






























Interactive Weather Map
Tropical Storm Tracking
New forecast layout! Learn more

10-Day Weather Forecast

Advertisements
Track Severe Weather on mobile